Lazaropole, Macedonia
Current Conditions -  °F | °C
As of 10:00 AM on Saturday 20 Dec 2014 (Local Time) from LWOH Reporting Station
Scattered Clouds Scattered Clouds  
Wind Chill: 43°   Ceiling: Unl
Heat Index: 43°   Visibility: 6mi
Dew Point: 36°   Wind: 1mph
Humidity: 76%   Direction: 310°NW
Pressure: 30.21"   Gusts: NA
Location:  41.53°N, 20.7°E
Report Text: LWOH 200800Z 31001KT 9999 SCT013 06/02 Q1023
Loading
Personal Weather Stations






























Interactive Weather Map New forecast layout! Learn more

10-Day Weather Forecast

Advertisements
Track Severe Weather on mobile